createdAt,value
2018-08-13T00:01:44.506Z,1.80
2018-08-13T00:06:43.988Z,1.90
2018-08-13T00:09:11.665Z,1.73
2018-08-13T00:11:39.125Z,1.70
2018-08-13T00:14:08.171Z,1.80
2018-08-13T00:16:35.577Z,1.83
2018-08-13T00:19:03.027Z,1.90
2018-08-13T00:21:30.870Z,2.20
2018-08-13T00:24:03.285Z,1.40
2018-08-13T00:26:30.709Z,1.73
2018-08-13T00:29:02.624Z,1.87
2018-08-13T00:31:33.996Z,2.20
2018-08-13T00:34:01.443Z,1.70
2018-08-13T00:36:30.663Z,1.97
2018-08-13T00:38:58.115Z,1.87
2018-08-13T00:41:25.617Z,2.17
2018-08-13T00:43:53.495Z,1.90
2018-08-13T00:46:21.407Z,1.90
2018-08-13T00:48:48.898Z,1.75
2018-08-13T00:51:16.632Z,2.20
2018-08-13T00:53:44.138Z,1.80
2018-08-13T00:56:11.544Z,1.70
2018-08-13T00:58:39.039Z,1.98
2018-08-13T01:01:06.514Z,1.70
2018-08-13T01:03:34.630Z,2.57
2018-08-13T01:06:02.142Z,2.20
2018-08-13T01:08:29.585Z,2.05
2018-08-13T01:10:57.627Z,1.90
2018-08-13T01:13:25.182Z,3.25
2018-08-13T01:15:55.934Z,1.87
2018-08-13T01:18:23.408Z,2.10
2018-08-13T01:20:51.163Z,2.23
2018-08-13T01:23:18.611Z,2.10
2018-08-13T01:25:46.124Z,2.10
2018-08-13T01:28:14.181Z,2.10
2018-08-13T01:30:41.659Z,2.37
2018-08-13T01:33:09.048Z,2.30
2018-08-13T01:35:37.272Z,2.80
2018-08-13T01:38:05.157Z,2.10
2018-08-13T01:40:32.623Z,2.27
2018-08-13T01:43:00.221Z,1.90
2018-08-13T01:45:28.001Z,1.80
2018-08-13T01:48:00.432Z,2.20
2018-08-13T01:50:27.942Z,1.90
2018-08-13T01:55:23.793Z,2.17
2018-08-13T01:57:55.904Z,2.00
2018-08-13T02:00:27.847Z,2.22
2018-08-13T02:02:55.331Z,2.22
2018-08-13T02:05:23.682Z,2.15
2018-08-13T02:07:51.091Z,2.22
2018-08-13T02:10:18.750Z,1.92
2018-08-13T02:12:46.455Z,2.20
2018-08-13T02:15:13.964Z,2.10
2018-08-13T02:17:42.067Z,1.98
2018-08-13T02:20:09.936Z,1.80
2018-08-13T02:22:37.756Z,2.10
2018-08-13T02:25:05.901Z,1.85
2018-08-13T02:27:33.466Z,2.08
2018-08-13T02:30:00.879Z,2.20
2018-08-13T02:32:28.361Z,2.87
2018-08-13T02:34:55.779Z,2.40
2018-08-13T02:37:23.559Z,2.20
2018-08-13T02:39:52.324Z,2.25
2018-08-13T02:44:46.542Z,2.20
2018-08-13T02:47:14.014Z,2.52
2018-08-13T02:49:42.730Z,2.60
2018-08-13T02:54:37.759Z,2.30
2018-08-13T02:57:05.776Z,2.00
2018-08-13T02:59:33.347Z,2.60
2018-08-13T03:02:01.652Z,2.20
2018-08-13T03:04:29.248Z,2.58
2018-08-13T03:06:56.593Z,2.40
2018-08-13T03:09:24.031Z,3.10
2018-08-13T03:11:52.072Z,2.00
2018-08-13T03:14:19.512Z,2.42
2018-08-13T03:16:47.639Z,2.02
2018-08-13T03:19:20.319Z,2.83
2018-08-13T03:21:47.880Z,1.90
2018-08-13T03:24:15.306Z,2.00
2018-08-13T03:26:42.719Z,2.33
2018-08-13T03:29:10.165Z,2.50
2018-08-13T03:31:42.284Z,2.60
2018-08-13T03:34:10.422Z,2.40
2018-08-13T03:36:42.250Z,2.30
2018-08-13T03:39:12.281Z,2.00
2018-08-13T03:41:48.302Z,2.12
2018-08-13T03:44:15.746Z,2.37
2018-08-13T03:49:13.240Z,2.20
2018-08-13T03:51:41.628Z,2.02
2018-08-13T03:54:09.052Z,2.47
2018-08-13T03:56:36.572Z,1.90
2018-08-13T03:59:04.091Z,2.10
2018-08-13T04:01:31.521Z,2.90
2018-08-13T04:03:58.938Z,2.42
2018-08-13T04:06:30.602Z,2.77
2018-08-13T04:08:58.157Z,2.22
2018-08-13T04:11:25.599Z,2.90
2018-08-13T04:13:52.994Z,2.10
2018-08-13T04:16:20.386Z,2.45
2018-08-13T04:18:47.781Z,2.50
2018-08-13T04:21:19.950Z,2.30
2018-08-13T04:23:47.451Z,2.47
2018-08-13T04:26:14.913Z,2.85
2018-08-13T04:28:42.395Z,2.55
2018-08-13T04:31:10.339Z,2.83
2018-08-13T04:33:38.522Z,2.62
2018-08-13T04:36:06.034Z,2.77
2018-08-13T04:38:33.847Z,2.63
2018-08-13T04:41:01.366Z,2.60
2018-08-13T04:43:28.819Z,2.22
2018-08-13T04:45:56.309Z,3.08
2018-08-13T04:48:24.373Z,2.52
2018-08-13T04:50:52.043Z,3.10
2018-08-13T04:53:21.932Z,2.30
2018-08-13T04:55:49.222Z,2.40
2018-08-13T04:58:16.639Z,2.65
2018-08-13T05:00:43.927Z,2.62
2018-08-13T05:03:11.219Z,2.50
2018-08-13T05:05:38.558Z,2.77
2018-08-13T05:08:05.817Z,2.57
2018-08-13T05:10:33.121Z,2.87
2018-08-13T05:13:00.437Z,2.60
2018-08-13T05:15:27.738Z,2.27
2018-08-13T05:17:55.037Z,2.40
2018-08-13T05:20:22.450Z,2.87
2018-08-13T05:22:49.736Z,2.97
2018-08-13T05:25:17.349Z,3.37
2018-08-13T05:27:44.641Z,2.23
2018-08-13T05:30:12.877Z,2.90
2018-08-13T05:32:40.154Z,2.43
2018-08-13T05:35:08.418Z,2.57
2018-08-13T05:37:35.898Z,2.47
2018-08-13T05:40:03.212Z,2.37
2018-08-13T05:42:30.474Z,2.50
2018-08-13T05:44:57.783Z,2.87
2018-08-13T05:47:25.086Z,2.63
2018-08-13T05:49:53.309Z,2.80
2018-08-13T05:52:20.740Z,2.10
2018-08-13T05:54:48.020Z,2.20
2018-08-13T05:57:15.318Z,2.33
2018-08-13T05:59:43.182Z,2.13
2018-08-13T06:02:10.978Z,2.50
2018-08-13T06:04:38.255Z,2.47
2018-08-13T06:07:05.635Z,2.20
2018-08-13T06:09:32.936Z,2.87
2018-08-13T06:12:00.246Z,2.10
2018-08-13T06:14:27.550Z,2.20
2018-08-13T06:16:54.846Z,2.37
2018-08-13T06:19:22.653Z,2.10
2018-08-13T06:21:50.059Z,2.27
2018-08-13T06:24:17.455Z,1.90
2018-08-13T06:26:45.483Z,2.23
2018-08-13T06:29:13.322Z,2.00
2018-08-13T06:31:40.687Z,2.37
2018-08-13T06:34:08.122Z,1.90
2018-08-13T06:36:35.405Z,2.30
2018-08-13T06:39:02.894Z,2.10
2018-08-13T06:41:30.155Z,2.13
2018-08-13T06:43:57.502Z,2.40
2018-08-13T06:46:24.821Z,2.10
2018-08-13T06:48:52.127Z,2.00
2018-08-13T06:51:19.397Z,2.10
2018-08-13T06:53:46.706Z,2.20
2018-08-13T06:56:14.734Z,2.33
2018-08-13T06:58:42.046Z,2.30
2018-08-13T07:01:09.339Z,2.30
2018-08-13T07:03:36.666Z,2.60
2018-08-13T07:06:03.982Z,2.43
2018-08-13T07:08:31.362Z,2.70
2018-08-13T07:10:58.778Z,2.20
2018-08-13T07:13:26.859Z,2.50
2018-08-13T07:15:54.163Z,2.60
2018-08-13T07:18:22.090Z,2.33
2018-08-13T07:20:49.487Z,2.53
2018-08-13T07:23:16.776Z,2.77
2018-08-13T07:25:44.085Z,2.43
2018-08-13T07:28:11.456Z,2.40
2018-08-13T07:30:38.689Z,2.57
2018-08-13T07:33:06.096Z,3.03
2018-08-13T07:35:33.513Z,2.30
2018-08-13T07:38:00.808Z,2.40
2018-08-13T07:40:28.610Z,2.60
2018-08-13T07:42:55.911Z,2.67
2018-08-13T07:45:23.320Z,3.23
2018-08-13T07:47:50.626Z,3.27
2018-08-13T07:50:17.952Z,2.47
2018-08-13T07:52:45.269Z,2.67
2018-08-13T07:55:13.332Z,2.97
2018-08-13T07:57:41.043Z,3.10
2018-08-13T08:00:09.336Z,3.20
2018-08-13T08:02:36.655Z,3.90
2018-08-13T08:05:04.735Z,3.40
2018-08-13T08:07:32.082Z,2.73
2018-08-13T08:09:59.395Z,3.63
2018-08-13T08:12:26.784Z,4.00
2018-08-13T08:14:54.082Z,5.20
2018-08-13T08:17:21.390Z,3.70
2018-08-13T08:19:48.803Z,4.00
2018-08-13T08:22:16.202Z,3.63
2018-08-13T08:24:43.492Z,3.30
2018-08-13T08:27:10.898Z,3.50
2018-08-13T08:29:38.226Z,3.47
2018-08-13T08:32:05.590Z,4.37
2018-08-13T08:34:32.899Z,3.97
2018-08-13T08:37:00.196Z,3.60
2018-08-13T08:39:27.536Z,3.63
2018-08-13T08:41:54.899Z,3.40
2018-08-13T08:44:22.235Z,3.77
2018-08-13T08:46:49.551Z,3.17
2018-08-13T08:49:16.855Z,3.43
2018-08-13T08:51:44.217Z,3.23
2018-08-13T08:54:11.547Z,2.40
2018-08-13T08:56:38.908Z,3.40
2018-08-13T08:59:07.227Z,2.93
2018-08-13T09:01:34.739Z,2.97
2018-08-13T09:04:02.234Z,2.93
2018-08-13T09:06:30.131Z,3.17
2018-08-13T09:08:57.467Z,2.77
2018-08-13T09:11:25.670Z,3.00
2018-08-13T09:13:52.998Z,3.47
2018-08-13T09:16:20.339Z,2.90
2018-08-13T09:18:53.245Z,3.07
2018-08-13T09:21:26.275Z,2.87
2018-08-13T09:23:59.087Z,2.67
2018-08-13T09:26:32.071Z,2.83
2018-08-13T09:29:05.090Z,2.83
2018-08-13T09:31:37.869Z,3.00
2018-08-13T09:34:10.672Z,3.73
2018-08-13T09:36:37.993Z,2.70
2018-08-13T09:39:06.491Z,3.10
2018-08-13T09:41:33.806Z,3.27
2018-08-13T09:44:01.110Z,3.03
2018-08-13T09:46:28.400Z,3.10
2018-08-13T09:48:55.654Z,2.77
2018-08-13T09:51:23.026Z,3.07
2018-08-13T09:53:50.494Z,2.30
2018-08-13T09:56:17.633Z,2.47
2018-08-13T09:58:44.927Z,3.00
2018-08-13T10:01:13.094Z,2.20
2018-08-13T10:03:40.612Z,1.80
2018-08-13T10:06:07.948Z,2.10
2018-08-13T10:08:35.257Z,2.40
2018-08-13T10:11:02.565Z,2.00
2018-08-13T10:13:29.956Z,1.60
2018-08-13T10:15:57.259Z,3.00
2018-08-13T10:18:24.565Z,2.03
2018-08-13T10:20:51.818Z,2.10
2018-08-13T10:23:19.166Z,2.50
2018-08-13T10:25:46.472Z,2.30
2018-08-13T10:28:13.774Z,2.30
2018-08-13T10:30:41.255Z,1.90
2018-08-13T10:33:08.898Z,1.87
2018-08-13T10:35:36.419Z,1.67
2018-08-13T10:38:03.710Z,2.10
2018-08-13T10:40:31.057Z,1.90
2018-08-13T10:42:58.407Z,2.20
2018-08-13T10:45:25.721Z,2.10
2018-08-13T10:47:53.025Z,1.90
2018-08-13T10:50:20.330Z,1.40
2018-08-13T10:52:47.607Z,2.20
2018-08-13T10:55:15.431Z,1.83
2018-08-13T10:57:43.526Z,1.83
2018-08-13T11:00:11.958Z,1.83
2018-08-13T11:02:39.263Z,2.17
2018-08-13T11:05:07.476Z,1.97
2018-08-13T11:07:34.792Z,2.30
2018-08-13T11:10:02.084Z,1.83
2018-08-13T11:12:29.394Z,2.50
2018-08-13T11:14:56.782Z,2.60
2018-08-13T11:17:24.153Z,1.80
2018-08-13T11:19:51.483Z,2.00
2018-08-13T11:22:18.831Z,1.90
2018-08-13T11:24:46.191Z,1.60
2018-08-13T11:27:14.575Z,2.30
2018-08-13T11:29:43.327Z,2.10
2018-08-13T11:32:10.646Z,2.20
2018-08-13T11:34:37.999Z,1.60
2018-08-13T11:37:05.477Z,1.60
2018-08-13T11:39:32.854Z,1.90
2018-08-13T11:42:00.246Z,1.90
2018-08-13T11:44:27.495Z,1.87
2018-08-13T11:46:54.790Z,1.97
2018-08-13T11:49:22.099Z,2.07
2018-08-13T11:51:49.392Z,2.07
2018-08-13T11:54:16.753Z,1.80
2018-08-13T11:56:44.094Z,2.20
2018-08-13T11:59:11.397Z,2.00
2018-08-13T12:01:38.722Z,2.10
2018-08-13T12:04:06.075Z,2.00
2018-08-13T12:06:33.481Z,2.03
2018-08-13T12:09:00.823Z,1.90
2018-08-13T12:11:28.141Z,2.00
2018-08-13T12:13:55.509Z,1.60
2018-08-13T12:16:22.860Z,2.10
2018-08-13T12:18:50.199Z,2.27
2018-08-13T12:21:17.542Z,2.00
2018-08-13T12:23:44.905Z,1.90
2018-08-13T12:26:12.276Z,1.87
2018-08-13T12:28:39.572Z,2.00
2018-08-13T12:31:06.975Z,1.80
2018-08-13T12:33:34.266Z,1.80
2018-08-13T12:36:01.554Z,2.10
2018-08-13T12:38:28.936Z,2.63
2018-08-13T12:40:56.238Z,1.80
2018-08-13T12:43:23.573Z,2.30
2018-08-13T12:45:51.359Z,2.00
2018-08-13T12:48:18.665Z,1.80
2018-08-13T12:50:46.050Z,2.30
2018-08-13T12:53:13.366Z,1.90
2018-08-13T12:55:40.656Z,2.00
2018-08-13T12:58:07.963Z,1.93
2018-08-13T13:00:35.530Z,2.17
2018-08-13T13:03:02.877Z,2.00
2018-08-13T13:05:30.223Z,1.90
2018-08-13T13:07:57.578Z,1.70
2018-08-13T13:10:24.880Z,1.27
2018-08-13T13:12:52.490Z,1.67
2018-08-13T13:15:20.809Z,2.13
2018-08-13T13:17:48.139Z,2.27
2018-08-13T13:20:17.226Z,2.07
2018-08-13T13:22:44.489Z,1.97
2018-08-13T13:25:11.917Z,2.20
2018-08-13T13:27:39.506Z,1.87
2018-08-13T13:30:07.663Z,2.00
2018-08-13T13:32:34.968Z,2.30
2018-08-13T13:35:02.295Z,2.53
2018-08-13T13:37:30.388Z,2.30
2018-08-13T13:39:57.709Z,2.10
2018-08-13T13:42:25.005Z,1.93
2018-08-13T13:44:52.327Z,2.20
2018-08-13T13:47:19.604Z,2.10
2018-08-13T13:49:46.892Z,2.20
2018-08-13T13:52:14.197Z,2.47
2018-08-13T13:54:41.994Z,2.50
2018-08-13T13:57:09.304Z,1.93
2018-08-13T13:59:36.593Z,1.90
2018-08-13T14:02:04.319Z,2.40
2018-08-13T14:04:31.618Z,2.33
2018-08-13T14:06:59.068Z,2.30
2018-08-13T14:09:26.406Z,2.60
2018-08-13T14:11:53.712Z,2.47
2018-08-13T14:14:21.023Z,2.70
2018-08-13T14:16:48.336Z,2.23
2018-08-13T14:19:15.660Z,1.90
2018-08-13T14:21:43.013Z,2.50
2018-08-13T14:24:10.323Z,2.00
2018-08-13T14:26:37.635Z,2.30
2018-08-13T14:29:05.225Z,2.70
2018-08-13T14:31:32.617Z,2.43
2018-08-13T14:34:00.141Z,2.43
2018-08-13T14:36:28.062Z,2.53
2018-08-13T14:38:55.411Z,2.67
2018-08-13T14:41:22.697Z,2.80
2018-08-13T14:43:50.138Z,2.80
2018-08-13T14:46:17.483Z,3.37
2018-08-13T14:48:44.802Z,3.87
2018-08-13T14:51:12.251Z,3.10
2018-08-13T14:53:39.480Z,3.03
2018-08-13T14:56:07.155Z,4.20
2018-08-13T14:58:34.493Z,3.53
2018-08-13T15:01:02.162Z,3.23
2018-08-13T15:03:29.468Z,3.37
2018-08-13T15:05:56.821Z,4.23
2018-08-13T15:08:24.182Z,4.00
2018-08-13T15:10:51.481Z,4.83
2018-08-13T15:13:19.042Z,4.80
2018-08-13T15:15:46.341Z,4.80
2018-08-13T15:18:13.617Z,4.83
2018-08-13T15:20:40.922Z,5.83
2018-08-13T15:23:08.224Z,5.07
2018-08-13T15:25:35.585Z,5.73
2018-08-13T15:28:03.296Z,5.80
2018-08-13T15:30:30.514Z,4.43
2018-08-13T15:32:57.776Z,5.17
2018-08-13T15:35:25.168Z,5.00
2018-08-13T15:37:52.535Z,4.43
2018-08-13T15:40:19.931Z,4.93
2018-08-13T15:42:47.232Z,5.47
2018-08-13T15:45:16.559Z,4.77
2018-08-13T15:47:43.952Z,4.63
2018-08-13T15:50:12.266Z,4.33
2018-08-13T15:52:39.675Z,4.57
2018-08-13T15:55:07.010Z,5.40
2018-08-13T15:57:34.323Z,4.47
2018-08-13T16:00:01.695Z,4.20
2018-08-13T16:02:29.946Z,5.50
2018-08-13T16:04:57.226Z,4.80
2018-08-13T16:07:24.522Z,4.60
2018-08-13T16:09:51.830Z,5.97
2018-08-13T16:12:19.167Z,5.73
2018-08-13T16:14:46.521Z,6.90
2018-08-13T16:17:13.819Z,6.90
2018-08-13T16:19:41.134Z,7.67
2018-08-13T16:22:08.478Z,6.40
2018-08-13T16:24:35.923Z,6.10
2018-08-13T16:27:03.330Z,6.87
2018-08-13T16:29:30.730Z,6.90
2018-08-13T16:31:58.247Z,5.10
2018-08-13T16:34:25.538Z,4.90
2018-08-13T16:36:52.875Z,5.47
2018-08-13T16:39:20.188Z,5.43
2018-08-13T16:41:47.466Z,6.00
2018-08-13T16:44:14.791Z,5.90
2018-08-13T16:46:42.093Z,4.73
2018-08-13T16:49:09.763Z,4.80
2018-08-13T16:51:37.067Z,5.00
2018-08-13T16:54:04.542Z,5.57
2018-08-13T16:56:50.180Z,5.20
2018-08-13T16:59:17.630Z,5.03
2018-08-13T17:01:45.107Z,5.40
2018-08-13T17:04:12.510Z,5.37
2018-08-13T17:06:39.838Z,5.47
2018-08-13T17:09:21.830Z,4.50
2018-08-13T17:11:50.398Z,4.77
2018-08-13T17:14:22.991Z,5.00
2018-08-13T17:16:50.421Z,6.90
2018-08-13T17:19:17.859Z,5.90
2018-08-13T17:21:45.164Z,7.53
2018-08-13T17:24:14.595Z,8.53
2018-08-13T17:26:42.417Z,6.63
2018-08-13T17:29:14.965Z,7.37
2018-08-13T17:31:43.034Z,9.23
2018-08-13T17:34:11.923Z,10.87
2018-08-13T17:36:39.661Z,9.20
2018-08-13T17:39:16.758Z,9.33
2018-08-13T17:41:44.060Z,8.47
2018-08-13T17:44:12.198Z,9.00
2018-08-13T17:46:40.092Z,9.90
2018-08-13T17:49:08.021Z,8.63
2018-08-13T17:51:36.004Z,8.10
2018-08-13T17:54:04.278Z,8.97
2018-08-13T17:56:31.861Z,8.93
2018-08-13T17:58:59.820Z,9.20
2018-08-13T18:03:54.394Z,8.20
2018-08-13T18:06:21.756Z,8.40
2018-08-13T18:08:49.768Z,7.90
2018-08-13T18:11:17.248Z,7.70
2018-08-13T18:13:44.811Z,8.87
2018-08-13T18:16:12.277Z,8.23
2018-08-13T18:18:39.711Z,8.07
2018-08-13T18:21:07.083Z,8.60
2018-08-13T18:23:34.557Z,8.17
2018-08-13T18:26:02.855Z,9.00
2018-08-13T18:28:30.377Z,8.40
2018-08-13T18:30:57.889Z,7.10
2018-08-13T18:33:25.495Z,9.43
2018-08-13T18:35:52.919Z,8.20
2018-08-13T18:38:28.553Z,9.20
2018-08-13T18:40:59.466Z,9.17
2018-08-13T18:43:26.789Z,8.60
2018-08-13T18:45:54.241Z,7.90
2018-08-13T18:48:21.669Z,9.07
2018-08-13T18:50:52.051Z,9.80
2018-08-13T18:53:21.056Z,10.20
2018-08-13T18:55:56.800Z,9.50
2018-08-13T18:58:28.630Z,9.17
2018-08-13T19:00:56.672Z,9.00
2018-08-13T19:03:25.009Z,10.37
2018-08-13T19:05:52.432Z,10.20
2018-08-13T19:10:54.062Z,9.20
2018-08-13T19:26:26.042Z,8.93
2018-08-13T19:28:53.499Z,12.27
2018-08-13T19:31:21.034Z,10.60
2018-08-13T19:33:49.178Z,10.58
2018-08-13T19:36:21.415Z,9.80
2018-08-13T19:38:50.122Z,11.10
2018-08-13T19:41:22.823Z,11.30
2018-08-13T19:46:18.210Z,11.00
2018-08-13T19:48:46.171Z,9.80
2018-08-13T19:51:13.611Z,11.28
2018-08-13T19:53:41.125Z,11.90
2018-08-13T19:56:09.489Z,10.57
2018-08-13T19:58:36.970Z,11.90
2018-08-13T20:01:09.540Z,11.33
2018-08-13T20:03:37.520Z,11.12
2018-08-13T20:06:05.662Z,11.97
2018-08-13T20:08:34.046Z,12.00
2018-08-13T20:11:02.658Z,12.50
2018-08-13T20:13:30.212Z,13.27
2018-08-13T20:15:58.058Z,11.60
2018-08-13T20:18:28.712Z,10.80
2018-08-13T20:21:00.231Z,12.83
2018-08-13T20:23:27.683Z,11.55
2018-08-13T20:25:59.241Z,12.03
2018-08-13T20:28:27.305Z,10.87
2018-08-13T20:30:55.389Z,10.10
2018-08-13T20:33:23.442Z,11.15
2018-08-13T20:38:18.125Z,9.93
2018-08-13T20:40:45.532Z,11.55
2018-08-13T20:43:13.072Z,9.45
2018-08-13T20:45:40.531Z,9.88
2018-08-13T20:48:08.016Z,9.80
2018-08-13T20:50:36.078Z,9.15
2018-08-13T20:53:09.656Z,7.75
2018-08-13T20:55:38.091Z,7.70
2018-08-13T20:58:06.608Z,6.83
2018-08-13T21:00:34.276Z,6.58
2018-08-13T21:03:01.749Z,6.40
2018-08-13T21:05:33.740Z,6.75
2018-08-13T21:08:01.296Z,6.17
2018-08-13T21:10:29.262Z,6.53
2018-08-13T21:12:56.811Z,5.90
2018-08-13T21:15:24.313Z,5.78
2018-08-13T21:17:51.887Z,6.03
2018-08-13T21:20:22.987Z,6.33
2018-08-13T21:22:50.432Z,5.83
2018-08-13T21:25:18.367Z,7.20
2018-08-13T21:27:46.063Z,5.33
2018-08-13T21:30:19.072Z,5.78
2018-08-13T21:32:47.628Z,5.60
2018-08-13T21:35:16.630Z,5.50
2018-08-13T21:37:45.034Z,5.30
2018-08-13T21:40:17.227Z,5.25
2018-08-13T21:42:47.227Z,5.50
2018-08-13T21:45:14.776Z,5.40
2018-08-13T21:47:43.541Z,5.33
2018-08-13T21:50:12.047Z,5.42
2018-08-13T21:52:40.477Z,5.20
2018-08-13T21:55:08.982Z,6.00
2018-08-13T21:57:36.962Z,5.20
2018-08-13T22:00:07.249Z,6.12
2018-08-13T22:02:35.997Z,6.10
2018-08-13T22:05:03.437Z,6.50
2018-08-13T22:07:31.370Z,6.17
2018-08-13T22:10:00.103Z,6.67
2018-08-13T22:12:28.278Z,6.20
2018-08-13T22:14:56.325Z,6.25
2018-08-13T22:17:24.172Z,6.87
2018-08-13T22:19:52.315Z,7.55
2018-08-13T22:22:24.145Z,8.08
2018-08-13T22:24:57.885Z,7.80
2018-08-13T22:27:26.043Z,7.50
2018-08-13T22:29:55.054Z,7.60
2018-08-13T22:32:23.058Z,8.10
2018-08-13T22:34:51.173Z,8.85
2018-08-13T22:37:18.660Z,7.67
2018-08-13T22:39:46.082Z,8.45
2018-08-13T22:42:15.768Z,8.15
2018-08-13T22:44:47.299Z,8.40
2018-08-13T22:47:15.272Z,9.13
2018-08-13T22:49:42.713Z,8.00
2018-08-13T22:52:11.480Z,7.45
2018-08-13T22:54:40.315Z,10.05
2018-08-13T22:57:08.364Z,8.70
2018-08-13T22:59:35.786Z,8.70
2018-08-13T23:02:04.090Z,8.85
2018-08-13T23:04:31.666Z,8.10
2018-08-13T23:07:00.103Z,9.23
2018-08-13T23:09:27.552Z,9.05
2018-08-13T23:11:55.769Z,7.90
2018-08-13T23:14:23.714Z,8.53
2018-08-13T23:16:51.119Z,6.75
2018-08-13T23:19:18.668Z,8.23
2018-08-13T23:21:46.274Z,7.70
2018-08-13T23:24:13.749Z,7.40
2018-08-13T23:26:41.525Z,7.95
2018-08-13T23:29:09.234Z,7.42
2018-08-13T23:31:36.971Z,8.43
2018-08-13T23:34:05.816Z,8.25
2018-08-13T23:36:33.302Z,8.33
2018-08-13T23:39:00.769Z,8.60
2018-08-13T23:41:28.243Z,8.63
2018-08-13T23:43:56.459Z,9.00
2018-08-13T23:46:25.532Z,9.15
2018-08-13T23:48:54.213Z,9.70
2018-08-13T23:51:22.614Z,11.40
2018-08-13T23:53:51.077Z,8.85
2018-08-13T23:56:19.545Z,9.90
2018-08-13T23:58:48.236Z,8.68
